sensor_id;sensor_type;location;lat;lon;timestamp;noise_LAeq;noise_LA_min;noise_LA_max;noise_LA01;noise_LA95
73638;Laerm;53743;51.100;5.874;2023-06-26T00:00:17;53.20;29.04;68.87;;
73638;Laerm;53743;51.100;5.874;2023-06-26T00:01:20;30.80;29.32;35.08;;
73638;Laerm;53743;51.100;5.874;2023-06-26T00:02:23;30.27;28.59;34.26;;
73638;Laerm;53743;51.100;5.874;2023-06-26T00:03:24;30.77;29.21;39.44;;
73638;Laerm;53743;51.100;5.874;2023-06-26T00:04:26;31.49;29.53;44.98;;
73638;Laerm;53743;51.100;5.874;2023-06-26T00:05:27;30.88;28.89;33.33;;
73638;Laerm;53743;51.100;5.874;2023-06-26T00:06:31;30.62;28.90;35.68;;
73638;Laerm;53743;51.100;5.874;2023-06-26T00:07:32;31.23;29.11;33.93;;
73638;Laerm;53743;51.100;5.874;2023-06-26T00:08:35;30.60;28.58;32.86;;
73638;Laerm;53743;51.100;5.874;2023-06-26T00:09:37;56.67;29.65;78.17;;
73638;Laerm;53743;51.100;5.874;2023-06-26T00:10:40;32.07;29.31;39.79;;
73638;Laerm;53743;51.100;5.874;2023-06-26T00:11:41;56.71;29.64;72.91;;
73638;Laerm;53743;51.100;5.874;2023-06-26T00:12:43;32.27;28.82;42.77;;
73638;Laerm;53743;51.100;5.874;2023-06-26T00:13:44;52.42;29.69;67.79;;
73638;Laerm;53743;51.100;5.874;2023-06-26T00:14:46;31.61;29.39;35.75;;
73638;Laerm;53743;51.100;5.874;2023-06-26T00:15:47;62.09;29.63;77.33;;
73638;Laerm;53743;51.100;5.874;2023-06-26T00:16:50;36.12;29.00;50.91;;
73638;Laerm;53743;51.100;5.874;2023-06-26T00:17:51;53.71;28.56;69.77;;
73638;Laerm;53743;51.100;5.874;2023-06-26T00:18:54;30.23;28.15;35.84;;
73638;Laerm;53743;51.100;5.874;2023-06-26T00:19:55;30.48;28.89;41.63;;
73638;Laerm;53743;51.100;5.874;2023-06-26T00:20:57;32.85;28.70;42.19;;
73638;Laerm;53743;51.100;5.874;2023-06-26T00:21:58;29.95;28.31;35.56;;
73638;Laerm;53743;51.100;5.874;2023-06-26T00:23:00;31.38;28.77;36.24;;
73638;Laerm;53743;51.100;5.874;2023-06-26T00:24:01;31.10;28.87;45.03;;
73638;Laerm;53743;51.100;5.874;2023-06-26T00:25:04;30.93;28.70;33.58;;
73638;Laerm;53743;51.100;5.874;2023-06-26T00:26:10;30.64;28.91;32.57;;
73638;Laerm;53743;51.100;5.874;2023-06-26T00:27:12;30.25;28.17;39.30;;
73638;Laerm;53743;51.100;5.874;2023-06-26T00:28:13;30.09;28.36;36.19;;
73638;Laerm;53743;51.100;5.874;2023-06-26T00:29:16;31.22;28.84;36.00;;
73638;Laerm;53743;51.100;5.874;2023-06-26T00:30:17;29.99;28.20;39.31;;
73638;Laerm;53743;51.100;5.874;2023-06-26T00:31:19;29.71;27.93;34.55;;
73638;Laerm;53743;51.100;5.874;2023-06-26T00:32:20;30.24;28.21;51.12;;
73638;Laerm;53743;51.100;5.874;2023-06-26T00:33:22;31.25;27.79;38.66;;
73638;Laerm;53743;51.100;5.874;2023-06-26T00:34:25;29.86;27.97;38.08;;
73638;Laerm;53743;51.100;5.874;2023-06-26T00:35:27;30.36;28.46;41.16;;
73638;Laerm;53743;51.100;5.874;2023-06-26T00:36:28;30.07;28.28;36.71;;
73638;Laerm;53743;51.100;5.874;2023-06-26T00:37:32;30.00;28.14;46.06;;
73638;Laerm;53743;51.100;5.874;2023-06-26T00:38:34;30.28;28.51;36.76;;
73638;Laerm;53743;51.100;5.874;2023-06-26T00:39:36;30.57;28.56;35.26;;
73638;Laerm;53743;51.100;5.874;2023-06-26T00:40:37;29.73;27.83;33.09;;
73638;Laerm;53743;51.100;5.874;2023-06-26T00:41:41;29.59;27.95;31.37;;
73638;Laerm;53743;51.100;5.874;2023-06-26T00:42:42;30.30;28.41;40.63;;
73638;Laerm;53743;51.100;5.874;2023-06-26T00:43:44;30.18;28.33;34.77;;
73638;Laerm;53743;51.100;5.874;2023-06-26T00:44:45;30.21;28.65;32.12;;
73638;Laerm;53743;51.100;5.874;2023-06-26T00:45:47;33.12;28.20;41.49;;
73638;Laerm;53743;51.100;5.874;2023-06-26T00:46:49;31.25;28.51;36.63;;
73638;Laerm;53743;51.100;5.874;2023-06-26T00:47:51;56.69;28.50;72.29;;
73638;Laerm;53743;51.100;5.874;2023-06-26T00:48:54;38.60;27.98;54.90;;
73638;Laerm;53743;51.100;5.874;2023-06-26T00:49:56;38.97;28.34;54.68;;
73638;Laerm;53743;51.100;5.874;2023-06-26T00:50:58;55.58;29.30;74.66;;
73638;Laerm;53743;51.100;5.874;2023-06-26T00:52:00;31.46;28.34;35.65;;
73638;Laerm;53743;51.100;5.874;2023-06-26T00:53:02;35.61;28.53;44.96;;
73638;Laerm;53743;51.100;5.874;2023-06-26T00:54:05;33.27;29.31;38.54;;
73638;Laerm;53743;51.100;5.874;2023-06-26T00:55:07;29.87;27.94;33.04;;
73638;Laerm;53743;51.100;5.874;2023-06-26T00:56:11;30.11;27.81;37.24;;
73638;Laerm;53743;51.100;5.874;2023-06-26T00:57:14;32.04;28.68;44.33;;
73638;Laerm;53743;51.100;5.874;2023-06-26T00:58:16;56.69;28.51;72.98;;
73638;Laerm;53743;51.100;5.874;2023-06-26T00:59:17;30.42;28.66;32.68;;
73638;Laerm;53743;51.100;5.874;2023-06-26T01:00:20;30.50;28.68;33.30;;
73638;Laerm;53743;51.100;5.874;2023-06-26T01:01:21;30.40;28.22;33.93;;
73638;Laerm;53743;51.100;5.874;2023-06-26T01:02:26;30.63;28.57;40.84;;
73638;Laerm;53743;51.100;5.874;2023-06-26T01:03:34;30.71;27.81;45.96;;
73638;Laerm;53743;51.100;5.874;2023-06-26T01:04:38;53.74;28.74;69.52;;
73638;Laerm;53743;51.100;5.874;2023-06-26T01:05:49;31.33;28.62;36.02;;
73638;Laerm;53743;51.100;5.874;2023-06-26T01:06:53;59.95;29.45;75.74;;
73638;Laerm;53743;51.100;5.874;2023-06-26T01:07:57;29.89;28.30;32.64;;
73638;Laerm;53743;51.100;5.874;2023-06-26T01:10:10;30.38;28.40;40.01;;
73638;Laerm;53743;51.100;5.874;2023-06-26T01:11:13;33.09;28.48;49.29;;
73638;Laerm;53743;51.100;5.874;2023-06-26T01:12:17;30.94;28.74;36.05;;
73638;Laerm;53743;51.100;5.874;2023-06-26T01:13:20;30.27;28.28;32.16;;
73638;Laerm;53743;51.100;5.874;2023-06-26T01:14:23;30.33;27.90;40.94;;
73638;Laerm;53743;51.100;5.874;2023-06-26T01:15:24;52.93;28.87;67.38;;
73638;Laerm;53743;51.100;5.874;2023-06-26T01:16:30;32.58;28.61;48.68;;
73638;Laerm;53743;51.100;5.874;2023-06-26T01:17:32;31.71;28.45;45.57;;
73638;Laerm;53743;51.100;5.874;2023-06-26T01:18:38;30.68;28.27;46.29;;
73638;Laerm;53743;51.100;5.874;2023-06-26T01:19:44;30.56;28.50;40.87;;
73638;Laerm;53743;51.100;5.874;2023-06-26T01:20:47;31.29;28.18;44.32;;
73638;Laerm;53743;51.100;5.874;2023-06-26T01:21:56;30.42;28.00;42.15;;
73638;Laerm;53743;51.100;5.874;2023-06-26T01:23:12;31.62;27.85;45.11;;
73638;Laerm;53743;51.100;5.874;2023-06-26T01:24:18;33.38;29.47;45.05;;
73638;Laerm;53743;51.100;5.874;2023-06-26T01:25:37;32.28;29.08;45.39;;
73638;Laerm;53743;51.100;5.874;2023-06-26T01:26:44;30.89;28.73;42.27;;
73638;Laerm;53743;51.100;5.874;2023-06-26T01:27:54;52.11;29.02;68.48;;
73638;Laerm;53743;51.100;5.874;2023-06-26T01:28:58;45.43;29.03;63.80;;
73638;Laerm;53743;51.100;5.874;2023-06-26T01:30:05;53.23;29.61;68.33;;
73638;Laerm;53743;51.100;5.874;2023-06-26T01:31:11;32.33;29.24;41.46;;
73638;Laerm;53743;51.100;5.874;2023-06-26T01:32:13;56.92;29.41;73.63;;
73638;Laerm;53743;51.100;5.874;2023-06-26T01:33:15;36.67;28.79;49.76;;
73638;Laerm;53743;51.100;5.874;2023-06-26T01:34:18;31.82;29.21;43.23;;
73638;Laerm;53743;51.100;5.874;2023-06-26T01:35:19;31.45;29.15;33.73;;
73638;Laerm;53743;51.100;5.874;2023-06-26T01:36:22;30.92;28.85;36.76;;
73638;Laerm;53743;51.100;5.874;2023-06-26T01:37:23;30.75;28.82;33.47;;
73638;Laerm;53743;51.100;5.874;2023-06-26T01:38:25;31.89;29.58;34.82;;
73638;Laerm;53743;51.100;5.874;2023-06-26T01:39:27;32.64;29.62;50.03;;
73638;Laerm;53743;51.100;5.874;2023-06-26T01:40:29;34.68;30.37;45.04;;
73638;Laerm;53743;51.100;5.874;2023-06-26T01:41:30;35.25;29.26;45.44;;
73638;Laerm;53743;51.100;5.874;2023-06-26T01:42:34;34.38;29.40;45.84;;
73638;Laerm;53743;51.100;5.874;2023-06-26T01:43:57;34.91;29.16;46.77;;
73638;Laerm;53743;51.100;5.874;2023-06-26T01:45:12;35.66;29.67;50.16;;
73638;Laerm;53743;51.100;5.874;2023-06-26T01:46:23;36.26;29.75;48.08;;
73638;Laerm;53743;51.100;5.874;2023-06-26T01:47:32;51.32;31.80;66.29;;
73638;Laerm;53743;51.100;5.874;2023-06-26T01:48:47;35.81;30.50;46.90;;
73638;Laerm;53743;51.100;5.874;2023-06-26T01:50:00;36.13;30.57;47.66;;
73638;Laerm;53743;51.100;5.874;2023-06-26T01:51:10;35.95;29.97;47.00;;
73638;Laerm;53743;51.100;5.874;2023-06-26T01:52:27;36.11;30.07;48.40;;
73638;Laerm;53743;51.100;5.874;2023-06-26T01:53:41;36.27;29.38;50.12;;
73638;Laerm;53743;51.100;5.874;2023-06-26T01:54:55;35.60;29.91;47.79;;
73638;Laerm;53743;51.100;5.874;2023-06-26T01:56:06;56.23;30.52;73.88;;
73638;Laerm;53743;51.100;5.874;2023-06-26T01:57:10;53.70;29.39;68.00;;
73638;Laerm;53743;51.100;5.874;2023-06-26T01:58:14;36.32;29.16;48.35;;
73638;Laerm;53743;51.100;5.874;2023-06-26T01:59:20;35.93;28.65;50.62;;
73638;Laerm;53743;51.100;5.874;2023-06-26T02:00:23;51.19;29.62;68.43;;
73638;Laerm;53743;51.100;5.874;2023-06-26T02:01:26;31.13;29.02;42.19;;
73638;Laerm;53743;51.100;5.874;2023-06-26T02:02:29;31.09;29.31;33.79;;
73638;Laerm;53743;51.100;5.874;2023-06-26T02:03:31;33.05;29.14;45.38;;
73638;Laerm;53743;51.100;5.874;2023-06-26T02:04:34;35.77;29.40;49.71;;
73638;Laerm;53743;51.100;5.874;2023-06-26T02:05:36;36.37;30.09;48.99;;
73638;Laerm;53743;51.100;5.874;2023-06-26T02:06:38;37.23;29.16;49.84;;
73638;Laerm;53743;51.100;5.874;2023-06-26T02:07:39;35.72;29.34;48.53;;
73638;Laerm;53743;51.100;5.874;2023-06-26T02:08:42;53.73;29.86;70.42;;
73638;Laerm;53743;51.100;5.874;2023-06-26T02:09:43;46.41;31.20;60.63;;
73638;Laerm;53743;51.100;5.874;2023-06-26T02:10:45;45.15;30.50;59.73;;
73638;Laerm;53743;51.100;5.874;2023-06-26T02:11:46;46.64;30.53;59.57;;
73638;Laerm;53743;51.100;5.874;2023-06-26T02:12:48;47.34;30.58;60.86;;
73638;Laerm;53743;51.100;5.874;2023-06-26T02:13:51;46.55;31.46;58.97;;
73638;Laerm;53743;51.100;5.874;2023-06-26T02:14:53;45.92;31.39;58.62;;
73638;Laerm;53743;51.100;5.874;2023-06-26T02:15:58;45.72;31.43;59.62;;
73638;Laerm;53743;51.100;5.874;2023-06-26T02:17:00;51.08;32.56;71.49;;
73638;Laerm;53743;51.100;5.874;2023-06-26T02:18:01;54.87;32.69;70.28;;
73638;Laerm;53743;51.100;5.874;2023-06-26T02:19:03;42.14;32.01;58.66;;
73638;Laerm;53743;51.100;5.874;2023-06-26T02:20:06;44.91;32.51;58.59;;
73638;Laerm;53743;51.100;5.874;2023-06-26T02:21:11;46.39;32.87;60.62;;
73638;Laerm;53743;51.100;5.874;2023-06-26T02:22:12;50.64;31.80;68.83;;
73638;Laerm;53743;51.100;5.874;2023-06-26T02:23:15;52.97;33.80;69.41;;
73638;Laerm;53743;51.100;5.874;2023-06-26T02:24:16;54.38;34.17;71.02;;
73638;Laerm;53743;51.100;5.874;2023-06-26T02:25:19;43.05;32.92;57.87;;
73638;Laerm;53743;51.100;5.874;2023-06-26T02:26:20;57.32;33.97;72.25;;
73638;Laerm;53743;51.100;5.874;2023-06-26T02:27:22;44.02;33.05;59.03;;
73638;Laerm;53743;51.100;5.874;2023-06-26T02:28:23;44.86;32.70;58.26;;
73638;Laerm;53743;51.100;5.874;2023-06-26T02:29:26;46.81;33.52;61.73;;
73638;Laerm;53743;51.100;5.874;2023-06-26T02:30:27;47.07;32.91;59.16;;
73638;Laerm;53743;51.100;5.874;2023-06-26T02:31:29;46.74;32.89;59.79;;
73638;Laerm;53743;51.100;5.874;2023-06-26T02:32:30;48.36;32.60;62.05;;
73638;Laerm;53743;51.100;5.874;2023-06-26T02:33:33;54.36;33.38;69.44;;
73638;Laerm;53743;51.100;5.874;2023-06-26T02:34:34;51.80;33.38;69.29;;
73638;Laerm;53743;51.100;5.874;2023-06-26T02:35:36;45.38;33.04;61.66;;
73638;Laerm;53743;51.100;5.874;2023-06-26T02:36:37;45.26;32.75;63.78;;
73638;Laerm;53743;51.100;5.874;2023-06-26T02:37:40;48.65;33.33;64.13;;
73638;Laerm;53743;51.100;5.874;2023-06-26T02:38:41;58.74;33.34;72.49;;
73638;Laerm;53743;51.100;5.874;2023-06-26T02:39:43;45.68;33.79;60.42;;
73638;Laerm;53743;51.100;5.874;2023-06-26T02:40:45;45.53;33.83;62.10;;
73638;Laerm;53743;51.100;5.874;2023-06-26T02:41:48;41.68;33.93;58.41;;
73638;Laerm;53743;51.100;5.874;2023-06-26T02:42:50;49.49;34.16;69.59;;
73638;Laerm;53743;51.100;5.874;2023-06-26T02:43:53;51.80;34.11;69.93;;
73638;Laerm;53743;51.100;5.874;2023-06-26T02:44:55;45.63;33.76;65.00;;
73638;Laerm;53743;51.100;5.874;2023-06-26T02:45:58;39.62;33.10;50.29;;
73638;Laerm;53743;51.100;5.874;2023-06-26T02:46:59;54.36;31.53;74.83;;
73638;Laerm;53743;51.100;5.874;2023-06-26T02:48:01;56.23;31.88;72.89;;
73638;Laerm;53743;51.100;5.874;2023-06-26T02:49:04;54.57;32.11;72.51;;
73638;Laerm;53743;51.100;5.874;2023-06-26T02:50:07;35.58;31.86;47.96;;
73638;Laerm;53743;51.100;5.874;2023-06-26T02:51:27;36.47;31.85;43.50;;
73638;Laerm;53743;51.100;5.874;2023-06-26T02:52:30;42.25;33.42;54.68;;
73638;Laerm;53743;51.100;5.874;2023-06-26T02:53:32;38.62;31.65;52.60;;
73638;Laerm;53743;51.100;5.874;2023-06-26T02:54:34;52.51;32.16;67.83;;
73638;Laerm;53743;51.100;5.874;2023-06-26T02:55:38;36.93;31.77;50.20;;
73638;Laerm;53743;51.100;5.874;2023-06-26T02:56:41;39.26;31.92;49.09;;
73638;Laerm;53743;51.100;5.874;2023-06-26T02:57:43;38.76;30.96;57.51;;
73638;Laerm;53743;51.100;5.874;2023-06-26T02:58:45;55.33;31.77;74.86;;
73638;Laerm;53743;51.100;5.874;2023-06-26T02:59:47;53.66;32.47;69.33;;
73638;Laerm;53743;51.100;5.874;2023-06-26T03:00:49;38.29;31.38;51.63;;
73638;Laerm;53743;51.100;5.874;2023-06-26T03:01:53;53.30;32.74;68.74;;
73638;Laerm;53743;51.100;5.874;2023-06-26T03:02:58;42.39;32.44;52.91;;
73638;Laerm;53743;51.100;5.874;2023-06-26T03:04:00;53.81;32.86;68.12;;
73638;Laerm;53743;51.100;5.874;2023-06-26T03:05:01;58.95;36.10;71.55;;
73638;Laerm;53743;51.100;5.874;2023-06-26T03:06:05;56.18;31.86;72.27;;
73638;Laerm;53743;51.100;5.874;2023-06-26T03:07:06;37.34;31.68;52.62;;
73638;Laerm;53743;51.100;5.874;2023-06-26T03:08:08;37.22;31.39;55.32;;
73638;Laerm;53743;51.100;5.874;2023-06-26T03:09:10;51.14;31.63;66.15;;
73638;Laerm;53743;51.100;5.874;2023-06-26T03:10:12;58.84;32.36;75.70;;
73638;Laerm;53743;51.100;5.874;2023-06-26T03:11:16;37.51;31.65;54.48;;
73638;Laerm;53743;51.100;5.874;2023-06-26T03:12:19;36.63;32.42;46.27;;
73638;Laerm;53743;51.100;5.874;2023-06-26T03:13:21;34.97;31.53;42.70;;
73638;Laerm;53743;51.100;5.874;2023-06-26T03:14:23;37.17;31.64;48.46;;
73638;Laerm;53743;51.100;5.874;2023-06-26T03:15:26;40.43;32.74;57.25;;
73638;Laerm;53743;51.100;5.874;2023-06-26T03:16:28;39.34;32.97;54.20;;
73638;Laerm;53743;51.100;5.874;2023-06-26T03:17:30;57.61;33.85;74.42;;
73638;Laerm;53743;51.100;5.874;2023-06-26T03:18:38;54.10;32.86;69.76;;
73638;Laerm;53743;51.100;5.874;2023-06-26T03:19:40;49.03;34.42;62.09;;
73638;Laerm;53743;51.100;5.874;2023-06-26T03:21:01;39.48;33.13;49.08;;
73638;Laerm;53743;51.100;5.874;2023-06-26T03:22:04;55.18;33.57;70.08;;
73638;Laerm;53743;51.100;5.874;2023-06-26T03:23:05;50.90;32.34;68.82;;
73638;Laerm;53743;51.100;5.874;2023-06-26T03:24:10;62.09;35.69;75.79;;
73638;Laerm;53743;51.100;5.874;2023-06-26T03:25:11;61.33;36.45;78.54;;
73638;Laerm;53743;51.100;5.874;2023-06-26T03:26:14;57.01;35.39;72.28;;
73638;Laerm;53743;51.100;5.874;2023-06-26T03:27:15;51.97;33.99;66.72;;
73638;Laerm;53743;51.100;5.874;2023-06-26T03:28:18;53.72;34.26;67.85;;
73638;Laerm;53743;51.100;5.874;2023-06-26T03:29:20;38.39;32.64;51.57;;
73638;Laerm;53743;51.100;5.874;2023-06-26T03:30:23;59.53;32.28;76.90;;
73638;Laerm;53743;51.100;5.874;2023-06-26T03:31:27;55.63;33.31;77.38;;
73638;Laerm;53743;51.100;5.874;2023-06-26T03:32:30;38.34;32.45;52.04;;
73638;Laerm;53743;51.100;5.874;2023-06-26T03:33:31;56.47;32.44;74.46;;
73638;Laerm;53743;51.100;5.874;2023-06-26T03:34:34;39.84;32.78;55.41;;
73638;Laerm;53743;51.100;5.874;2023-06-26T03:35:35;55.52;32.88;70.96;;
73638;Laerm;53743;51.100;5.874;2023-06-26T03:36:37;37.34;32.01;48.24;;
73638;Laerm;53743;51.100;5.874;2023-06-26T03:37:39;41.43;31.96;56.61;;
73638;Laerm;53743;51.100;5.874;2023-06-26T03:38:41;56.15;31.63;76.67;;
73638;Laerm;53743;51.100;5.874;2023-06-26T03:39:44;56.93;32.82;73.61;;
73638;Laerm;53743;51.100;5.874;2023-06-26T03:40:45;38.58;31.71;55.20;;
73638;Laerm;53743;51.100;5.874;2023-06-26T03:41:47;38.29;31.33;57.73;;
73638;Laerm;53743;51.100;5.874;2023-06-26T03:42:48;58.60;32.30;74.22;;
73638;Laerm;53743;51.100;5.874;2023-06-26T03:43:50;55.82;33.36;73.73;;
73638;Laerm;53743;51.100;5.874;2023-06-26T03:44:55;56.43;32.39;68.29;;
73638;Laerm;53743;51.100;5.874;2023-06-26T03:45:57;37.09;32.85;52.04;;
73638;Laerm;53743;51.100;5.874;2023-06-26T03:47:02;58.15;34.81;71.87;;
73638;Laerm;53743;51.100;5.874;2023-06-26T03:48:04;45.88;33.15;58.92;;
73638;Laerm;53743;51.100;5.874;2023-06-26T03:49:06;55.41;32.76;71.67;;
73638;Laerm;53743;51.100;5.874;2023-06-26T03:50:09;56.91;33.47;69.52;;
73638;Laerm;53743;51.100;5.874;2023-06-26T03:51:12;41.43;32.81;58.69;;
73638;Laerm;53743;51.100;5.874;2023-06-26T03:52:13;46.09;32.48;59.94;;
73638;Laerm;53743;51.100;5.874;2023-06-26T03:53:15;65.11;36.81;79.08;;
73638;Laerm;53743;51.100;5.874;2023-06-26T03:54:16;46.79;33.52;64.50;;
73638;Laerm;53743;51.100;5.874;2023-06-26T03:55:18;42.31;32.54;66.00;;
73638;Laerm;53743;51.100;5.874;2023-06-26T03:56:20;42.40;33.51;57.01;;
73638;Laerm;53743;51.100;5.874;2023-06-26T03:57:23;44.69;33.34;59.45;;
73638;Laerm;53743;51.100;5.874;2023-06-26T03:58:24;44.90;33.77;59.20;;
73638;Laerm;53743;51.100;5.874;2023-06-26T03:59:27;45.60;33.67;61.10;;
73638;Laerm;53743;51.100;5.874;2023-06-26T04:00:28;41.15;32.94;55.58;;
73638;Laerm;53743;51.100;5.874;2023-06-26T04:01:30;58.44;33.14;77.50;;
73638;Laerm;53743;51.100;5.874;2023-06-26T04:02:32;55.88;32.73;76.16;;
73638;Laerm;53743;51.100;5.874;2023-06-26T04:03:34;52.77;33.90;68.24;;
73638;Laerm;53743;51.100;5.874;2023-06-26T04:04:35;58.27;36.93;74.67;;
73638;Laerm;53743;51.100;5.874;2023-06-26T04:05:38;36.57;33.14;47.98;;
73638;Laerm;53743;51.100;5.874;2023-06-26T04:06:39;37.88;32.47;48.14;;
73638;Laerm;53743;51.100;5.874;2023-06-26T04:07:41;56.06;33.72;72.24;;
73638;Laerm;53743;51.100;5.874;2023-06-26T04:08:42;61.70;35.59;73.94;;
73638;Laerm;53743;51.100;5.874;2023-06-26T04:09:44;38.75;33.01;55.44;;
73638;Laerm;53743;51.100;5.874;2023-06-26T04:10:46;61.17;35.84;74.68;;
73638;Laerm;53743;51.100;5.874;2023-06-26T04:11:48;63.54;35.87;74.20;;
73638;Laerm;53743;51.100;5.874;2023-06-26T04:12:51;48.67;33.45;68.31;;
73638;Laerm;53743;51.100;5.874;2023-06-26T04:13:53;58.16;35.62;73.80;;
73638;Laerm;53743;51.100;5.874;2023-06-26T04:14:55;54.71;34.36;73.08;;
73638;Laerm;53743;51.100;5.874;2023-06-26T04:15:57;56.03;34.80;72.77;;
73638;Laerm;53743;51.100;5.874;2023-06-26T04:16:58;54.43;34.14;69.43;;
73638;Laerm;53743;51.100;5.874;2023-06-26T04:18:04;57.26;33.52;75.54;;
73638;Laerm;53743;51.100;5.874;2023-06-26T04:19:05;60.28;35.29;78.74;;
73638;Laerm;53743;51.100;5.874;2023-06-26T04:20:08;61.82;37.68;75.80;;
73638;Laerm;53743;51.100;5.874;2023-06-26T04:21:12;59.08;34.06;72.00;;
73638;Laerm;53743;51.100;5.874;2023-06-26T04:22:14;53.29;33.24;69.13;;
73638;Laerm;53743;51.100;5.874;2023-06-26T04:23:15;60.05;39.03;73.61;;
73638;Laerm;53743;51.100;5.874;2023-06-26T04:24:17;41.04;32.95;56.75;;
73638;Laerm;53743;51.100;5.874;2023-06-26T04:25:18;59.75;37.11;76.78;;
73638;Laerm;53743;51.100;5.874;2023-06-26T04:26:20;58.54;34.16;75.86;;
73638;Laerm;53743;51.100;5.874;2023-06-26T04:27:21;56.35;33.34;71.14;;
73638;Laerm;53743;51.100;5.874;2023-06-26T04:28:23;59.32;38.38;71.83;;
73638;Laerm;53743;51.100;5.874;2023-06-26T04:29:26;58.98;39.76;71.07;;
73638;Laerm;53743;51.100;5.874;2023-06-26T04:30:28;57.84;35.84;70.44;;
73638;Laerm;53743;51.100;5.874;2023-06-26T04:31:30;61.15;38.24;77.12;;
73638;Laerm;53743;51.100;5.874;2023-06-26T04:32:32;59.88;35.68;73.63;;
73638;Laerm;53743;51.100;5.874;2023-06-26T04:33:35;58.37;35.57;73.70;;
73638;Laerm;53743;51.100;5.874;2023-06-26T04:34:37;53.08;35.78;67.12;;
73638;Laerm;53743;51.100;5.874;2023-06-26T04:35:41;59.54;36.82;72.91;;
73638;Laerm;53743;51.100;5.874;2023-06-26T04:36:45;55.77;36.02;72.01;;
73638;Laerm;53743;51.100;5.874;2023-06-26T04:37:48;59.42;35.56;70.97;;
73638;Laerm;53743;51.100;5.874;2023-06-26T04:38:50;58.05;38.36;75.64;;
73638;Laerm;53743;51.100;5.874;2023-06-26T04:39:52;63.56;41.89;75.63;;
73638;Laerm;53743;51.100;5.874;2023-06-26T04:40:54;59.35;36.61;75.23;;
73638;Laerm;53743;51.100;5.874;2023-06-26T04:41:55;51.19;36.11;64.34;;
73638;Laerm;53743;51.100;5.874;2023-06-26T04:42:57;59.02;35.41;72.93;;
73638;Laerm;53743;51.100;5.874;2023-06-26T04:43:58;64.76;35.55;79.92;;
73638;Laerm;53743;51.100;5.874;2023-06-26T04:45:00;62.10;36.93;72.26;;
73638;Laerm;53743;51.100;5.874;2023-06-26T04:46:03;58.19;36.63;70.30;;
73638;Laerm;53743;51.100;5.874;2023-06-26T04:47:06;58.65;37.67;72.02;;
73638;Laerm;53743;51.100;5.874;2023-06-26T04:48:09;63.71;40.82;77.69;;
73638;Laerm;53743;51.100;5.874;2023-06-26T04:49:12;63.81;39.48;76.46;;
73638;Laerm;53743;51.100;5.874;2023-06-26T04:50:14;55.95;36.34;72.98;;
73638;Laerm;53743;51.100;5.874;2023-06-26T04:51:19;59.06;37.56;72.64;;
73638;Laerm;53743;51.100;5.874;2023-06-26T04:52:21;69.41;37.28;85.19;;
73638;Laerm;53743;51.100;5.874;2023-06-26T04:53:24;53.75;37.15;68.92;;
73638;Laerm;53743;51.100;5.874;2023-06-26T04:54:25;56.31;35.69;71.56;;
73638;Laerm;53743;51.100;5.874;2023-06-26T04:55:28;58.42;37.38;70.74;;
73638;Laerm;53743;51.100;5.874;2023-06-26T04:56:29;59.16;37.15;77.45;;
73638;Laerm;53743;51.100;5.874;2023-06-26T04:57:31;62.39;36.81;77.31;;
73638;Laerm;53743;51.100;5.874;2023-06-26T04:58:32;62.70;36.81;73.75;;
73638;Laerm;53743;51.100;5.874;2023-06-26T04:59:35;56.77;36.93;72.31;;
73638;Laerm;53743;51.100;5.874;2023-06-26T05:00:36;56.67;37.67;69.93;;
73638;Laerm;53743;51.100;5.874;2023-06-26T05:01:38;64.57;39.84;82.45;;
73638;Laerm;53743;51.100;5.874;2023-06-26T05:02:40;55.14;38.64;69.75;;
73638;Laerm;53743;51.100;5.874;2023-06-26T05:03:42;56.03;37.91;71.76;;
73638;Laerm;53743;51.100;5.874;2023-06-26T05:04:47;61.67;37.27;71.31;;
73638;Laerm;53743;51.100;5.874;2023-06-26T05:05:49;63.13;42.86;78.08;;
73638;Laerm;53743;51.100;5.874;2023-06-26T05:06:51;53.46;37.13;67.80;;
73638;Laerm;53743;51.100;5.874;2023-06-26T05:07:53;60.01;37.11;74.00;;
73638;Laerm;53743;51.100;5.874;2023-06-26T05:08:54;62.82;38.19;76.51;;
73638;Laerm;53743;51.100;5.874;2023-06-26T05:09:56;59.97;40.07;72.78;;
73638;Laerm;53743;51.100;5.874;2023-06-26T05:10:58;62.72;40.17;75.11;;
73638;Laerm;53743;51.100;5.874;2023-06-26T05:12:02;61.68;42.15;71.56;;
73638;Laerm;53743;51.100;5.874;2023-06-26T05:13:03;65.10;47.02;76.07;;
73638;Laerm;53743;51.100;5.874;2023-06-26T05:14:06;60.19;36.89;73.29;;
73638;Laerm;53743;51.100;5.874;2023-06-26T05:15:10;61.61;38.29;76.97;;
73638;Laerm;53743;51.100;5.874;2023-06-26T05:16:12;61.45;40.95;78.76;;
73638;Laerm;53743;51.100;5.874;2023-06-26T05:17:15;63.63;37.28;75.61;;
73638;Laerm;53743;51.100;5.874;2023-06-26T05:18:16;57.84;38.00;71.28;;
73638;Laerm;53743;51.100;5.874;2023-06-26T05:19:18;55.75;39.44;68.37;;
73638;Laerm;53743;51.100;5.874;2023-06-26T05:20:20;64.53;44.30;76.30;;
73638;Laerm;53743;51.100;5.874;2023-06-26T05:21:23;64.05;44.22;73.55;;
73638;Laerm;53743;51.100;5.874;2023-06-26T05:22:26;64.12;40.72;77.37;;
73638;Laerm;53743;51.100;5.874;2023-06-26T05:23:32;56.27;37.29;69.02;;
73638;Laerm;53743;51.100;5.874;2023-06-26T05:24:36;62.36;38.40;73.18;;
73638;Laerm;53743;51.100;5.874;2023-06-26T05:25:39;64.11;37.71;75.47;;
73638;Laerm;53743;51.100;5.874;2023-06-26T05:26:42;60.29;39.55;74.17;;
73638;Laerm;53743;51.100;5.874;2023-06-26T05:27:44;64.01;47.83;79.21;;
73638;Laerm;53743;51.100;5.874;2023-06-26T05:28:47;62.21;39.47;75.60;;
73638;Laerm;53743;51.100;5.874;2023-06-26T05:29:50;63.07;42.28;75.98;;
73638;Laerm;53743;51.100;5.874;2023-06-26T05:30:52;66.93;49.59;77.18;;
73638;Laerm;53743;51.100;5.874;2023-06-26T05:31:56;60.52;41.78;71.34;;
73638;Laerm;53743;51.100;5.874;2023-06-26T05:33:00;63.83;41.60;75.24;;
73638;Laerm;53743;51.100;5.874;2023-06-26T05:34:04;61.93;41.57;72.66;;
73638;Laerm;53743;51.100;5.874;2023-06-26T05:35:09;62.82;42.91;74.40;;
73638;Laerm;53743;51.100;5.874;2023-06-26T05:36:14;63.02;42.27;75.33;;
73638;Laerm;53743;51.100;5.874;2023-06-26T05:37:21;59.34;40.76;72.90;;
73638;Laerm;53743;51.100;5.874;2023-06-26T05:38:23;63.62;41.77;75.04;;
73638;Laerm;53743;51.100;5.874;2023-06-26T05:39:26;64.19;48.69;72.24;;
73638;Laerm;53743;51.100;5.874;2023-06-26T05:40:28;62.97;42.13;73.36;;
73638;Laerm;53743;51.100;5.874;2023-06-26T05:41:31;59.98;41.39;73.20;;
73638;Laerm;53743;51.100;5.874;2023-06-26T05:42:34;60.24;41.74;74.60;;
73638;Laerm;53743;51.100;5.874;2023-06-26T05:43:35;60.00;38.41;74.67;;
73638;Laerm;53743;51.100;5.874;2023-06-26T05:44:37;44.20;37.29;55.14;;
73638;Laerm;53743;51.100;5.874;2023-06-26T05:45:39;64.99;40.79;75.99;;
73638;Laerm;53743;51.100;5.874;2023-06-26T05:46:41;64.23;44.19;75.53;;
73638;Laerm;53743;51.100;5.874;2023-06-26T05:47:42;66.47;42.75;77.52;;
73638;Laerm;53743;51.100;5.874;2023-06-26T05:48:45;60.31;40.45;75.49;;
73638;Laerm;53743;51.100;5.874;2023-06-26T05:49:46;65.75;45.19;76.89;;
73638;Laerm;53743;51.100;5.874;2023-06-26T05:50:48;66.00;45.86;75.57;;
73638;Laerm;53743;51.100;5.874;2023-06-26T05:51:53;61.50;42.34;75.78;;
73638;Laerm;53743;51.100;5.874;2023-06-26T05:52:55;55.21;36.99;76.68;;
73638;Laerm;53743;51.100;5.874;2023-06-26T05:53:58;58.88;39.11;73.09;;